createdAt,value
2019-05-25T00:00:43.118Z,8.8
2019-05-25T00:01:39.772Z,8.8
2019-05-25T00:02:39.439Z,8.7
2019-05-25T00:03:40.283Z,8.7
2019-05-25T00:04:41.242Z,8.7
2019-05-25T00:05:40.919Z,8.6
2019-05-25T00:06:42.007Z,8.6
2019-05-25T00:07:41.126Z,8.5
2019-05-25T00:08:39.797Z,8.5
2019-05-25T00:09:40.667Z,8.5
2019-05-25T00:10:39.685Z,8.4
2019-05-25T00:11:39.761Z,8.4
2019-05-25T00:12:39.084Z,8.4
2019-05-25T00:13:40.039Z,8.4
2019-05-25T00:14:39.171Z,8.4
2019-05-25T00:15:40.854Z,8.3
2019-05-25T00:16:39.940Z,8.3
2019-05-25T00:17:41.364Z,8.4
2019-05-25T00:18:40.640Z,8.4
2019-05-25T00:20:09.637Z,8.4
2019-05-25T00:20:40.293Z,8.3
2019-05-25T00:21:39.678Z,8.3
2019-05-25T00:22:41.161Z,8.3
2019-05-25T00:23:40.261Z,8.3
2019-05-25T00:24:39.261Z,8.3
2019-05-25T00:25:39.758Z,8.2
2019-05-25T00:26:40.797Z,8.2
2019-05-25T00:27:39.961Z,8.2
2019-05-25T00:28:45.247Z,8.2
2019-05-25T00:29:40.649Z,8.2
2019-05-25T00:31:52.925Z,8.1
2019-05-25T00:32:53.181Z,8.1
2019-05-25T00:33:54.131Z,8.1
2019-05-25T00:34:54.318Z,8.1
2019-05-25T00:35:57.418Z,8.2
2019-05-25T00:36:58.277Z,8.2
2019-05-25T00:37:53.727Z,8.2
2019-05-25T00:39:00.210Z,8.2
2019-05-25T00:40:01.562Z,8.2
2019-05-25T00:40:57.979Z,8.2
2019-05-25T00:42:46.000Z,8.2
2019-05-25T00:42:54.807Z,8.2
2019-05-25T00:43:55.037Z,8.2
2019-05-25T00:44:57.299Z,8.2
2019-05-25T00:45:56.761Z,8.2
2019-05-25T00:47:07.454Z,8.2
2019-05-25T00:48:10.918Z,8.2
2019-05-25T00:49:03.971Z,8.2
2019-05-25T00:50:02.055Z,8.2
2019-05-25T00:50:56.714Z,8.1
2019-05-25T00:51:56.492Z,8.1
2019-05-25T00:54:07.652Z,8.1
2019-05-25T00:55:10.554Z,8.1
2019-05-25T00:56:17.072Z,8.1
2019-05-25T00:57:11.537Z,8.1
2019-05-25T00:58:11.766Z,8.3
2019-05-25T00:59:08.416Z,8.3
2019-05-25T01:00:12.210Z,8.3
2019-05-25T01:01:12.989Z,8.3
2019-05-25T01:02:24.966Z,8.3
2019-05-25T01:03:16.309Z,8.3
2019-05-25T01:12:16.805Z,8.4
2019-05-25T01:12:34.103Z,8.4
2019-05-25T01:13:35.094Z,8.2
2019-05-25T01:14:33.661Z,8.2
2019-05-25T01:15:43.656Z,8.2
2019-05-25T01:16:34.787Z,8.1
2019-05-25T01:17:31.437Z,8.1
2019-05-25T01:18:25.661Z,8.0
2019-05-25T01:19:24.782Z,8.0
2019-05-25T01:20:25.286Z,8.0
2019-05-25T01:21:25.463Z,8.0
2019-05-25T01:22:25.438Z,8.0
2019-05-25T01:23:24.774Z,8.0
2019-05-25T01:24:41.146Z,8.0
2019-05-25T01:25:27.790Z,8.0
2019-05-25T01:26:26.733Z,7.9
2019-05-25T01:27:27.491Z,7.9
2019-05-25T01:28:25.411Z,7.9
2019-05-25T01:29:28.382Z,7.9
2019-05-25T01:30:30.730Z,7.9
2019-05-25T01:31:25.530Z,7.9
2019-05-25T01:32:27.547Z,7.9
2019-05-25T01:33:31.913Z,7.9
2019-05-25T01:34:25.508Z,8.0
2019-05-25T01:35:30.927Z,8.0
2019-05-25T01:36:26.325Z,8.1
2019-05-25T01:38:39.286Z,8.1
2019-05-25T01:39:38.794Z,8.1
2019-05-25T01:40:39.723Z,8.1
2019-05-25T01:41:40.509Z,8.1
2019-05-25T01:42:38.498Z,8.1
2019-05-25T01:43:40.306Z,8.1
2019-05-25T01:44:39.117Z,8.0
2019-05-25T01:45:40.957Z,8.0
2019-05-25T01:46:40.180Z,8.0
2019-05-25T01:47:39.436Z,8.0
2019-05-25T01:48:48.662Z,8.0
2019-05-25T01:49:42.001Z,8.0
2019-05-25T01:50:38.797Z,8.0
2019-05-25T01:51:42.495Z,8.0
2019-05-25T01:52:38.585Z,8.0
2019-05-25T01:53:39.081Z,8.0
2019-05-25T01:54:40.197Z,8.0
2019-05-25T01:55:40.789Z,8.0
2019-05-25T01:56:39.098Z,7.9
2019-05-25T01:57:40.321Z,7.9
2019-05-25T02:01:02.055Z,7.9
2019-05-25T02:01:44.736Z,7.9
2019-05-25T02:02:52.804Z,7.9
2019-05-25T02:03:44.311Z,7.9
2019-05-25T02:04:45.015Z,8.0
2019-05-25T02:05:43.597Z,8.0
2019-05-25T02:06:44.867Z,8.1
2019-05-25T02:07:48.323Z,8.1
2019-05-25T02:08:50.527Z,8.1
2019-05-25T02:10:08.564Z,8.2
2019-05-25T02:10:48.866Z,8.2
2019-05-25T02:11:47.669Z,8.2
2019-05-25T02:12:53.960Z,8.2
2019-05-25T02:13:49.751Z,8.2
2019-05-25T02:14:45.280Z,8.1
2019-05-25T02:15:47.355Z,8.1
2019-05-25T02:16:55.315Z,8.1
2019-05-25T02:17:52.205Z,8.1
2019-05-25T02:22:13.634Z,8.1
2019-05-25T02:22:36.187Z,8.1
2019-05-25T02:23:30.949Z,8.1
2019-05-25T02:24:29.087Z,8.1
2019-05-25T02:25:30.061Z,8.1
2019-05-25T02:26:27.998Z,8.1
2019-05-25T02:27:28.073Z,8.1
2019-05-25T02:28:38.545Z,8.1
2019-05-25T02:29:32.546Z,8.1
2019-05-25T02:30:39.184Z,8.1
2019-05-25T02:31:27.608Z,8.1
2019-05-25T02:32:26.368Z,8.0
2019-05-25T02:33:27.967Z,8.0
2019-05-25T02:34:29.530Z,8.0
2019-05-25T02:35:26.625Z,8.0
2019-05-25T02:36:54.316Z,8.0
2019-05-25T02:37:25.936Z,7.9
2019-05-25T02:38:28.332Z,7.9
2019-05-25T02:49:16.820Z,7.9
2019-05-25T02:50:16.545Z,7.9
2019-05-25T02:51:19.513Z,7.9
2019-05-25T02:52:14.272Z,7.9
2019-05-25T02:53:16.488Z,8.1
2019-05-25T02:54:15.369Z,8.1
2019-05-25T02:55:32.493Z,8.0
2019-05-25T02:56:24.711Z,8.0
2019-05-25T02:57:22.500Z,8.0
2019-05-25T02:58:37.397Z,8.0
2019-05-25T02:59:30.216Z,8.0
2019-05-25T03:00:27.643Z,8.0
2019-05-25T03:01:20.226Z,8.0
2019-05-25T03:02:35.790Z,8.0
2019-05-25T03:03:23.974Z,8.0
2019-05-25T03:04:31.210Z,8.0
2019-05-25T03:05:26.902Z,8.0
2019-05-25T03:06:22.300Z,8.0
2019-05-25T03:07:23.964Z,8.0
2019-05-25T03:08:21.519Z,8.0
2019-05-25T03:09:37.662Z,8.0
2019-05-25T03:10:22.742Z,8.0
2019-05-25T03:11:19.329Z,8.0
2019-05-25T03:12:18.837Z,8.0
2019-05-25T03:13:18.442Z,8.2
2019-05-25T03:14:26.344Z,8.2
2019-05-25T03:15:27.015Z,8.2
2019-05-25T03:16:13.851Z,8.3
2019-05-25T03:17:39.484Z,8.3
2019-05-25T03:18:20.345Z,8.2
2019-05-25T03:19:25.154Z,8.2
2019-05-25T03:20:16.706Z,8.2
2019-05-25T03:21:49.979Z,8.1
2019-05-25T03:22:51.614Z,8.1
2019-05-25T03:23:31.715Z,8.0
2019-05-25T03:24:57.660Z,8.0
2019-05-25T03:25:58.420Z,8.0
2019-05-25T03:26:17.401Z,8.0
2019-05-25T03:35:25.959Z,8.0
2019-05-25T03:35:55.191Z,8.0
2019-05-25T03:36:49.034Z,8.2
2019-05-25T03:37:38.625Z,8.2
2019-05-25T03:38:46.616Z,8.2
2019-05-25T03:39:36.301Z,8.2
2019-05-25T03:40:44.248Z,8.2
2019-05-25T03:42:13.474Z,8.2
2019-05-25T03:43:27.566Z,8.2
2019-05-25T03:44:01.549Z,8.2
2019-05-25T03:44:41.263Z,8.2
2019-05-25T03:46:15.658Z,8.2
2019-05-25T03:46:49.126Z,8.2
2019-05-25T03:47:41.801Z,8.2
2019-05-25T03:48:51.827Z,8.4
2019-05-25T03:49:49.424Z,8.4
2019-05-25T03:50:40.883Z,8.4
2019-05-25T03:52:10.957Z,8.4
2019-05-25T03:52:51.648Z,8.4
2019-05-25T03:53:55.189Z,8.4
2019-05-25T03:54:46.254Z,8.4
2019-05-25T03:55:39.406Z,8.4
2019-05-25T03:56:37.820Z,8.4
2019-05-25T03:57:36.934Z,8.4
2019-05-25T03:58:36.144Z,8.4
2019-05-25T03:59:36.745Z,8.4
2019-05-25T04:00:36.896Z,8.4
2019-05-25T04:01:40.597Z,8.5
2019-05-25T04:02:44.302Z,8.5
2019-05-25T04:03:36.455Z,8.5
2019-05-25T04:04:40.772Z,8.5
2019-05-25T04:05:44.401Z,8.5
2019-05-25T04:06:39.974Z,8.5
2019-05-25T04:07:45.344Z,8.5
2019-05-25T04:08:38.973Z,8.5
2019-05-25T04:09:39.613Z,8.6
2019-05-25T04:11:05.856Z,8.6
2019-05-25T04:11:41.957Z,8.6
2019-05-25T04:12:41.858Z,8.6
2019-05-25T04:13:37.263Z,8.6
2019-05-25T04:14:38.487Z,8.6
2019-05-25T04:15:39.751Z,8.6
2019-05-25T04:16:36.264Z,8.6
2019-05-25T04:17:38.225Z,8.6
2019-05-25T04:18:35.913Z,8.6
2019-05-25T04:19:38.685Z,8.7
2019-05-25T04:20:38.323Z,8.7
2019-05-25T04:21:38.506Z,8.7
2019-05-25T04:27:31.778Z,8.7
2019-05-25T04:27:48.808Z,8.7
2019-05-25T04:28:49.686Z,8.7
2019-05-25T04:29:47.270Z,8.8
2019-05-25T04:30:49.810Z,8.8
2019-05-25T04:31:54.635Z,8.8
2019-05-25T04:32:57.151Z,8.8
2019-05-25T04:34:00.167Z,8.8
2019-05-25T04:35:02.212Z,8.9
2019-05-25T04:35:55.690Z,8.9
2019-05-25T04:36:51.128Z,9.0
2019-05-25T04:37:53.414Z,9.0
2019-05-25T04:38:56.988Z,9.0
2019-05-25T04:39:57.008Z,9.1
2019-05-25T04:40:50.655Z,9.1
2019-05-25T04:41:49.319Z,9.2
2019-05-25T04:42:48.149Z,9.2
2019-05-25T04:43:45.853Z,9.2
2019-05-25T04:45:39.246Z,9.2
2019-05-25T04:45:48.366Z,9.2
2019-05-25T04:46:47.759Z,9.2
2019-05-25T04:47:49.304Z,9.3
2019-05-25T04:48:47.665Z,9.3
2019-05-25T04:49:48.054Z,9.3
2019-05-25T04:50:47.718Z,9.3
2019-05-25T04:51:48.321Z,9.3
2019-05-25T04:52:48.193Z,9.4
2019-05-25T04:54:05.794Z,9.4
2019-05-25T04:54:57.937Z,9.4
2019-05-25T04:57:00.439Z,9.5
2019-05-25T04:58:00.574Z,9.5
2019-05-25T04:59:02.846Z,9.5
2019-05-25T05:00:01.978Z,9.6
2019-05-25T05:01:02.754Z,9.6
2019-05-25T05:02:01.149Z,9.6
2019-05-25T05:03:00.096Z,9.7
2019-05-25T05:04:00.375Z,9.7
2019-05-25T05:05:00.131Z,9.8
2019-05-25T05:06:00.067Z,9.8
2019-05-25T05:07:00.881Z,9.8
2019-05-25T05:08:01.370Z,10.0
2019-05-25T05:09:00.307Z,10.0
2019-05-25T05:10:02.569Z,10.0
2019-05-25T05:11:00.848Z,10.0
2019-05-25T05:12:01.116Z,10.0
2019-05-25T05:13:00.791Z,10.0
2019-05-25T05:14:00.748Z,10.0
2019-05-25T05:15:01.998Z,10.1
2019-05-25T05:16:00.723Z,10.1
2019-05-25T05:17:00.969Z,10.1
2019-05-25T05:18:00.458Z,10.1
2019-05-25T05:19:00.187Z,10.1
2019-05-25T05:20:00.572Z,10.2
2019-05-25T05:21:00.631Z,10.2
2019-05-25T05:22:00.393Z,10.2
2019-05-25T05:23:00.376Z,10.3
2019-05-25T05:24:00.112Z,10.3
2019-05-25T05:25:00.622Z,10.5
2019-05-25T05:26:00.122Z,10.5
2019-05-25T05:27:00.892Z,10.5
2019-05-25T05:28:00.470Z,10.7
2019-05-25T05:29:00.063Z,10.7
2019-05-25T05:30:01.168Z,10.7
2019-05-25T05:31:00.945Z,10.8
2019-05-25T05:32:00.561Z,10.8
2019-05-25T05:33:00.227Z,11.0
2019-05-25T05:34:00.619Z,11.0
2019-05-25T05:35:01.739Z,11.0
2019-05-25T05:36:00.957Z,11.3
2019-05-25T05:37:01.228Z,11.3
2019-05-25T05:38:00.164Z,11.5
2019-05-25T05:39:00.905Z,11.5
2019-05-25T05:40:00.365Z,11.5
2019-05-25T05:41:02.627Z,11.6
2019-05-25T05:42:01.777Z,11.6
2019-05-25T05:43:03.606Z,11.8
2019-05-25T05:44:00.735Z,11.8
2019-05-25T05:45:01.223Z,11.8
2019-05-25T05:46:00.150Z,12.0
2019-05-25T05:47:00.633Z,12.0
2019-05-25T05:48:00.639Z,12.0
2019-05-25T05:49:00.818Z,12.0
2019-05-25T05:50:03.195Z,12.0
2019-05-25T05:51:06.754Z,12.3
2019-05-25T05:52:00.469Z,12.3
2019-05-25T05:53:03.474Z,12.3
2019-05-25T05:57:21.583Z,12.3
2019-05-25T05:57:36.790Z,12.3
2019-05-25T05:58:38.649Z,12.4
2019-05-25T05:59:37.784Z,12.4
2019-05-25T06:00:37.987Z,12.6
2019-05-25T06:01:42.929Z,12.6
2019-05-25T06:02:44.025Z,12.6
2019-05-25T06:03:43.792Z,12.4
2019-05-25T06:04:37.362Z,12.4
2019-05-25T06:05:38.195Z,12.4
2019-05-25T06:06:36.271Z,12.5
2019-05-25T06:07:37.881Z,12.5
2019-05-25T06:08:36.204Z,12.7
2019-05-25T06:09:36.937Z,12.7
2019-05-25T06:10:35.863Z,12.7
2019-05-25T06:11:36.489Z,12.7
2019-05-25T06:12:35.658Z,12.7
2019-05-25T06:13:35.855Z,12.8
2019-05-25T06:14:36.366Z,12.8
2019-05-25T06:15:36.228Z,12.8
2019-05-25T06:16:35.806Z,12.8
2019-05-25T06:17:36.060Z,12.8
2019-05-25T06:18:36.018Z,12.9
2019-05-25T06:19:36.088Z,12.9
2019-05-25T06:20:36.450Z,12.9
2019-05-25T06:21:35.851Z,13.0
2019-05-25T06:22:36.780Z,13.0
2019-05-25T06:23:36.100Z,13.0
2019-05-25T06:24:36.187Z,13.0
2019-05-25T06:25:37.266Z,13.0
2019-05-25T06:26:35.875Z,13.2
2019-05-25T06:27:36.446Z,13.2
2019-05-25T06:28:36.731Z,13.2
2019-05-25T06:29:35.949Z,13.2
2019-05-25T06:30:36.309Z,13.2
2019-05-25T06:31:38.216Z,13.4
2019-05-25T06:32:37.870Z,13.4
2019-05-25T06:33:35.820Z,13.4
2019-05-25T06:34:36.941Z,13.4
2019-05-25T06:35:36.102Z,13.4
2019-05-25T06:36:36.203Z,13.7
2019-05-25T06:37:36.263Z,13.7
2019-05-25T06:38:36.914Z,13.7
2019-05-25T06:39:36.776Z,13.9
2019-05-25T06:40:37.044Z,13.9
2019-05-25T06:41:35.787Z,14.0
2019-05-25T06:45:55.091Z,14.0
2019-05-25T06:46:05.023Z,14.0
2019-05-25T06:47:04.284Z,14.2
2019-05-25T06:48:04.892Z,14.2
2019-05-25T06:49:04.182Z,14.4
2019-05-25T06:50:04.230Z,14.4
2019-05-25T06:51:05.506Z,14.4
2019-05-25T06:52:04.048Z,14.4
2019-05-25T06:53:04.431Z,14.4
2019-05-25T06:54:04.231Z,14.6
2019-05-25T06:55:07.785Z,14.6
2019-05-25T06:56:04.168Z,14.6
2019-05-25T06:57:03.977Z,14.7
2019-05-25T06:58:04.208Z,14.7
2019-05-25T06:59:03.938Z,14.8
2019-05-25T07:00:04.289Z,14.8
2019-05-25T07:01:04.101Z,14.8
2019-05-25T07:02:04.723Z,14.8
2019-05-25T07:03:05.150Z,14.8
2019-05-25T07:04:04.465Z,14.8
2019-05-25T07:11:36.833Z,14.9
2019-05-25T07:11:49.907Z,14.9
2019-05-25T07:12:51.838Z,15.0
2019-05-25T07:13:51.424Z,15.0
2019-05-25T07:14:50.986Z,15.0
2019-05-25T07:15:51.069Z,15.0
2019-05-25T07:16:51.574Z,15.0
2019-05-25T07:17:50.989Z,15.0
2019-05-25T07:18:51.238Z,15.0
2019-05-25T07:19:53.283Z,15.2
2019-05-25T07:20:54.045Z,15.2
2019-05-25T07:21:51.851Z,15.2
2019-05-25T07:22:52.349Z,15.6
2019-05-25T07:23:53.192Z,15.6
2019-05-25T07:24:52.750Z,15.8
2019-05-25T07:25:51.689Z,15.8
2019-05-25T07:26:51.033Z,15.8
2019-05-25T07:27:58.817Z,16.4
2019-05-25T07:28:51.463Z,16.4
2019-05-25T07:29:57.452Z,16.8
2019-05-25T07:30:53.437Z,16.8
2019-05-25T07:31:53.334Z,16.8
2019-05-25T07:32:55.123Z,16.8
2019-05-25T07:33:53.211Z,16.8
2019-05-25T07:34:59.469Z,17.2
2019-05-25T07:35:53.540Z,17.2
2019-05-25T07:36:56.307Z,17.2
2019-05-25T07:37:51.672Z,17.4
2019-05-25T07:38:54.520Z,17.4
2019-05-25T07:39:52.017Z,17.4
2019-05-25T07:40:55.331Z,17.4
2019-05-25T07:41:51.068Z,17.4
2019-05-25T07:42:51.218Z,17.5
2019-05-25T07:43:51.047Z,17.5
2019-05-25T07:53:01.735Z,18.0
2019-05-25T07:53:10.645Z,18.0
2019-05-25T07:54:10.141Z,18.0
2019-05-25T07:55:10.056Z,18.0
2019-05-25T07:56:10.729Z,18.0
2019-05-25T07:57:10.263Z,18.0
2019-05-25T07:58:16.566Z,17.7
2019-05-25T07:59:09.767Z,17.7
2019-05-25T08:00:10.200Z,17.8
2019-05-25T08:01:10.092Z,17.8
2019-05-25T08:02:10.730Z,17.8
2019-05-25T08:03:10.801Z,17.7
2019-05-25T08:04:09.904Z,17.7
2019-05-25T08:05:10.440Z,18.6
2019-05-25T08:06:11.510Z,18.6
2019-05-25T08:07:10.435Z,18.6
2019-05-25T08:08:11.883Z,18.1
2019-05-25T08:09:10.636Z,18.1
2019-05-25T08:10:10.106Z,18.1
2019-05-25T08:11:10.240Z,18.4
2019-05-25T08:12:11.997Z,18.4
2019-05-25T08:13:11.646Z,18.8
2019-05-25T08:14:11.455Z,18.8
2019-05-25T08:15:10.772Z,18.8
2019-05-25T08:16:11.312Z,18.9
2019-05-25T08:17:10.543Z,18.9
2019-05-25T08:18:10.077Z,18.8
2019-05-25T08:19:11.634Z,18.8
2019-05-25T08:20:10.064Z,18.8
2019-05-25T08:21:10.439Z,19.5
2019-05-25T08:22:10.269Z,19.5
2019-05-25T08:23:09.952Z,19.6
2019-05-25T08:24:11.045Z,19.6
2019-05-25T08:25:11.942Z,19.6
2019-05-25T08:26:10.313Z,19.0
2019-05-25T08:27:09.992Z,19.0
2019-05-25T08:28:09.980Z,18.9
2019-05-25T08:29:10.039Z,18.9
2019-05-25T08:30:09.974Z,18.9
2019-05-25T08:31:11.964Z,19.0
2019-05-25T08:32:09.891Z,19.0
2019-05-25T08:33:10.583Z,19.1
2019-05-25T08:34:09.878Z,19.1
2019-05-25T08:35:10.165Z,19.1
2019-05-25T08:36:10.851Z,19.1
2019-05-25T08:37:09.868Z,19.1
2019-05-25T08:38:10.420Z,19.0
2019-05-25T08:39:10.266Z,19.0
2019-05-25T08:41:51.249Z,19.0
2019-05-25T08:42:00.384Z,19.0
2019-05-25T08:43:00.627Z,19.0
2019-05-25T08:44:03.758Z,19.2
2019-05-25T08:45:00.558Z,19.2
2019-05-25T08:46:00.485Z,20.0
2019-05-25T08:47:00.433Z,20.0
2019-05-25T08:48:00.622Z,20.0
2019-05-25T08:49:00.367Z,19.8
2019-05-25T08:50:00.597Z,19.8
2019-05-25T08:51:00.562Z,20.1
2019-05-25T08:52:03.641Z,20.1
2019-05-25T08:53:01.857Z,20.1
2019-05-25T08:54:01.076Z,20.4
2019-05-25T08:55:00.317Z,20.4
2019-05-25T08:56:00.708Z,20.9
2019-05-25T08:57:01.105Z,20.9
2019-05-25T08:58:00.299Z,20.9
2019-05-25T08:59:02.190Z,20.6
2019-05-25T09:00:01.187Z,20.6
2019-05-25T09:01:02.634Z,20.2
2019-05-25T09:02:00.738Z,20.2
2019-05-25T09:03:05.305Z,20.2
2019-05-25T09:04:01.478Z,20.7
2019-05-25T09:05:02.779Z,20.7
2019-05-25T09:06:01.717Z,20.7
2019-05-25T09:07:00.735Z,19.7
2019-05-25T09:08:03.899Z,19.7
2019-05-25T09:09:02.300Z,19.9
2019-05-25T09:10:01.964Z,19.9
2019-05-25T09:11:02.291Z,19.9
2019-05-25T09:12:02.281Z,19.8
2019-05-25T09:13:01.064Z,19.8
2019-05-25T09:14:01.719Z,20.2
2019-05-25T09:15:05.305Z,20.2
2019-05-25T09:16:01.427Z,20.2
2019-05-25T09:17:00.390Z,20.2
2019-05-25T09:18:00.494Z,20.2
2019-05-25T09:19:00.866Z,20.3
2019-05-25T09:20:01.530Z,20.3
2019-05-25T09:21:00.458Z,20.3
2019-05-25T09:22:02.507Z,20.8
2019-05-25T09:23:00.698Z,20.8
2019-05-25T09:24:01.055Z,21.2
2019-05-25T09:25:00.356Z,21.2
2019-05-25T09:26:00.513Z,21.2
2019-05-25T09:27:00.495Z,20.6
2019-05-25T09:28:00.808Z,20.6
2019-05-25T09:29:04.531Z,20.6
2019-05-25T09:30:00.499Z,20.6
2019-05-25T09:31:00.883Z,20.6
2019-05-25T09:32:00.264Z,20.0
2019-05-25T09:33:00.310Z,20.0
2019-05-25T09:34:00.503Z,20.0
2019-05-25T09:35:00.852Z,19.8
2019-05-25T09:36:00.769Z,19.8
2019-05-25T09:37:00.308Z,20.1
2019-05-25T09:38:10.718Z,20.1
2019-05-25T09:39:01.124Z,20.1
2019-05-25T09:40:00.477Z,20.2
2019-05-25T09:41:00.316Z,20.2
2019-05-25T09:42:00.681Z,20.2
2019-05-25T09:43:00.594Z,20.2
2019-05-25T09:44:00.160Z,20.2
2019-05-25T09:45:00.372Z,20.4
2019-05-25T09:46:03.071Z,20.4
2019-05-25T09:47:00.482Z,20.4
2019-05-25T09:48:00.550Z,20.4
2019-05-25T09:49:00.979Z,20.4
2019-05-25T09:50:00.249Z,20.0
2019-05-25T09:51:00.317Z,20.0
2019-05-25T09:52:00.814Z,19.5
2019-05-25T09:53:00.379Z,19.5
2019-05-25T09:54:02.015Z,19.5
2019-05-25T09:55:00.368Z,19.4
2019-05-25T09:56:01.600Z,19.4
2019-05-25T09:57:00.323Z,19.4
2019-05-25T09:58:00.534Z,19.4
2019-05-25T09:59:01.027Z,19.4
2019-05-25T10:00:00.238Z,20.2
2019-05-25T10:01:00.693Z,20.2
2019-05-25T10:02:00.668Z,20.4
2019-05-25T10:03:00.818Z,20.4
2019-05-25T10:04:00.430Z,20.4
2019-05-25T10:05:00.378Z,20.9
2019-05-25T10:06:00.343Z,20.9
2019-05-25T10:07:00.745Z,20.9
2019-05-25T10:08:00.324Z,21.0
2019-05-25T10:09:00.639Z,21.0
2019-05-25T10:10:00.954Z,20.9
2019-05-25T10:11:00.647Z,20.9
2019-05-25T10:12:01.041Z,20.9
2019-05-25T10:13:00.533Z,21.0
2019-05-25T10:14:01.529Z,21.0
2019-05-25T10:15:00.332Z,21.2
2019-05-25T10:16:00.331Z,21.2
2019-05-25T10:17:00.439Z,21.2
2019-05-25T10:18:00.538Z,21.2
2019-05-25T10:19:00.426Z,21.2
2019-05-25T10:20:00.540Z,21.7
2019-05-25T10:21:00.580Z,21.7
2019-05-25T10:22:01.197Z,21.7
2019-05-25T10:23:00.679Z,21.7
2019-05-25T10:24:10.803Z,21.7
2019-05-25T10:25:01.592Z,21.1
2019-05-25T10:26:01.983Z,21.1
2019-05-25T10:27:01.198Z,21.1
2019-05-25T10:28:05.104Z,20.7
2019-05-25T10:29:00.879Z,20.7
2019-05-25T10:30:01.201Z,20.0
2019-05-25T10:31:00.764Z,20.0
2019-05-25T10:32:00.726Z,20.0
2019-05-25T10:33:00.593Z,19.8
2019-05-25T10:34:00.905Z,19.8
2019-05-25T10:35:00.675Z,19.8
2019-05-25T10:36:01.446Z,18.6
2019-05-25T10:37:00.407Z,18.6
2019-05-25T10:38:00.556Z,18.6
2019-05-25T10:39:00.578Z,18.6
2019-05-25T10:40:00.567Z,18.6
2019-05-25T10:41:01.414Z,18.4
2019-05-25T10:42:01.033Z,18.4
2019-05-25T10:43:01.073Z,18.0
2019-05-25T10:44:00.915Z,18.0
2019-05-25T10:45:00.354Z,18.0
2019-05-25T10:46:00.755Z,17.6
2019-05-25T10:47:00.587Z,17.6
2019-05-25T10:48:01.272Z,17.6
2019-05-25T10:49:00.679Z,17.6
2019-05-25T10:50:01.290Z,17.6
2019-05-25T10:51:00.434Z,17.6
2019-05-25T10:52:00.606Z,17.6
2019-05-25T10:53:00.524Z,17.4
2019-05-25T10:54:00.880Z,17.4
2019-05-25T10:55:01.101Z,17.4
2019-05-25T10:56:00.488Z,17.4
2019-05-25T10:57:00.649Z,17.4
2019-05-25T10:58:00.589Z,17.8
2019-05-25T10:59:00.730Z,17.8
2019-05-25T11:00:00.812Z,17.8
2019-05-25T11:01:00.809Z,18.2
2019-05-25T11:02:00.693Z,18.2
2019-05-25T11:03:00.785Z,18.2
2019-05-25T11:04:00.589Z,18.4
2019-05-25T11:05:00.567Z,18.4
2019-05-25T11:06:00.930Z,18.5
2019-05-25T11:07:00.651Z,18.5
2019-05-25T11:08:00.617Z,18.5
2019-05-25T11:09:00.766Z,18.8
2019-05-25T11:10:01.357Z,18.8
2019-05-25T11:11:01.339Z,19.2
2019-05-25T11:12:01.029Z,19.2
2019-05-25T11:13:00.525Z,19.2
2019-05-25T11:14:01.466Z,19.2
2019-05-25T11:15:00.658Z,19.2
2019-05-25T11:16:01.532Z,19.6
2019-05-25T11:17:00.873Z,19.6
2019-05-25T11:18:01.025Z,19.6
2019-05-25T11:19:00.505Z,19.6
2019-05-25T11:20:00.583Z,19.6
2019-05-25T11:21:02.234Z,19.4
2019-05-25T11:22:00.539Z,19.4
2019-05-25T11:23:00.891Z,19.4
2019-05-25T11:24:01.763Z,19.6
2019-05-25T11:25:00.680Z,19.6
2019-05-25T11:26:01.381Z,20.0
2019-05-25T11:27:05.030Z,20.0
2019-05-25T11:28:00.959Z,20.0
2019-05-25T11:29:00.733Z,20.0
2019-05-25T11:30:08.585Z,20.0
2019-05-25T11:31:02.820Z,19.7
2019-05-25T11:32:05.998Z,19.7
2019-05-25T11:33:00.491Z,19.7
2019-05-25T11:34:00.695Z,18.8
2019-05-25T11:35:00.562Z,18.8
2019-05-25T11:36:00.507Z,18.8
2019-05-25T11:37:04.558Z,18.6
2019-05-25T11:38:00.923Z,18.6
2019-05-25T11:39:00.430Z,18.5
2019-05-25T11:40:01.245Z,18.5
2019-05-25T11:41:00.581Z,18.5
2019-05-25T11:42:01.519Z,18.6
2019-05-25T11:43:02.850Z,18.6
2019-05-25T11:44:00.552Z,18.7
2019-05-25T11:45:01.067Z,18.7
2019-05-25T11:46:00.443Z,18.7
2019-05-25T11:47:01.017Z,18.8
2019-05-25T11:48:02.368Z,18.8
2019-05-25T11:49:01.365Z,18.8
2019-05-25T11:50:02.730Z,18.8
2019-05-25T11:55:56.285Z,18.8
2019-05-25T11:56:05.920Z,18.8
2019-05-25T11:57:05.326Z,19.1
2019-05-25T11:58:06.240Z,19.1
2019-05-25T11:59:05.353Z,19.1
2019-05-25T12:00:05.494Z,19.1
2019-05-25T12:01:06.671Z,19.1
2019-05-25T12:02:05.318Z,19.4
2019-05-25T12:03:05.980Z,19.4
2019-05-25T12:04:05.862Z,19.5
2019-05-25T12:05:07.009Z,19.5
2019-05-25T12:06:07.159Z,19.5
2019-05-25T12:07:05.298Z,19.4
2019-05-25T12:08:05.232Z,19.4
2019-05-25T12:09:05.324Z,19.4
2019-05-25T12:10:05.733Z,19.6
2019-05-25T12:11:05.521Z,19.6
2019-05-25T12:12:06.836Z,19.8
2019-05-25T12:13:05.325Z,19.8
2019-05-25T12:14:05.383Z,19.8
2019-05-25T12:15:06.231Z,19.7
2019-05-25T12:16:05.467Z,19.7
2019-05-25T12:17:05.381Z,19.8
2019-05-25T12:18:06.372Z,19.8
2019-05-25T12:19:05.242Z,19.8
2019-05-25T12:20:05.600Z,19.9
2019-05-25T12:21:05.454Z,19.9
2019-05-25T12:22:05.465Z,20.1
2019-05-25T12:23:07.561Z,20.1
2019-05-25T12:24:07.172Z,20.1
2019-05-25T12:25:05.323Z,20.2
2019-05-25T12:26:05.266Z,20.2
2019-05-25T12:27:06.570Z,20.4
2019-05-25T12:28:05.372Z,20.4
2019-05-25T12:29:16.157Z,20.4
2019-05-25T12:30:17.199Z,20.7
2019-05-25T12:31:08.140Z,20.7
2019-05-25T12:32:15.166Z,20.6
2019-05-25T12:33:06.507Z,20.6
2019-05-25T12:34:05.303Z,20.6
2019-05-25T12:36:46.716Z,20.7
2019-05-25T12:37:01.074Z,20.7
2019-05-25T12:38:01.214Z,20.6
2019-05-25T12:39:00.935Z,20.6
2019-05-25T12:40:00.938Z,20.6
2019-05-25T12:41:01.989Z,20.6
2019-05-25T12:42:03.052Z,20.6
2019-05-25T12:43:01.054Z,20.7
2019-05-25T12:44:02.793Z,20.7
2019-05-25T12:45:01.586Z,20.4
2019-05-25T12:46:02.584Z,20.4
2019-05-25T12:47:05.420Z,20.4
2019-05-25T12:48:01.617Z,20.5
2019-05-25T12:49:09.118Z,20.5
2019-05-25T12:50:02.290Z,20.7
2019-05-25T12:51:04.598Z,20.7
2019-05-25T12:52:03.970Z,20.7
2019-05-25T12:53:02.870Z,20.8
2019-05-25T12:54:03.193Z,20.8
2019-05-25T12:55:05.534Z,20.6
2019-05-25T12:56:03.906Z,20.6
2019-05-25T12:57:10.442Z,20.6
2019-05-25T12:58:01.041Z,20.6
2019-05-25T12:59:02.564Z,20.6
2019-05-25T13:00:12.238Z,20.7
2019-05-25T13:01:01.598Z,20.7
2019-05-25T13:02:04.627Z,20.7
2019-05-25T13:03:03.446Z,21.0
2019-05-25T13:04:01.594Z,21.0
2019-05-25T13:05:01.646Z,21.2
2019-05-25T13:06:01.540Z,21.2
2019-05-25T13:07:01.817Z,21.2
2019-05-25T13:08:02.175Z,21.1
2019-05-25T13:09:03.091Z,21.1
2019-05-25T13:10:01.693Z,21.1
2019-05-25T13:11:02.749Z,21.1
2019-05-25T13:12:01.468Z,21.1
2019-05-25T13:13:22.854Z,20.5
2019-05-25T13:14:12.077Z,20.5
2019-05-25T13:15:02.126Z,20.5
2019-05-25T13:16:02.839Z,20.1
2019-05-25T13:17:02.572Z,20.1
2019-05-25T13:18:01.846Z,19.7
2019-05-25T13:19:01.047Z,19.7
2019-05-25T13:20:01.341Z,19.7
2019-05-25T13:21:01.609Z,19.7
2019-05-25T13:22:02.551Z,19.7
2019-05-25T13:23:00.914Z,19.4
2019-05-25T13:24:02.700Z,19.4
2019-05-25T13:25:01.077Z,19.4
2019-05-25T13:26:07.712Z,19.2
2019-05-25T13:27:01.372Z,19.2
2019-05-25T13:28:01.524Z,18.2
2019-05-25T13:29:04.571Z,18.2
2019-05-25T13:30:03.057Z,18.2
2019-05-25T13:31:10.926Z,17.7
2019-05-25T13:32:01.902Z,17.7
2019-05-25T13:33:01.214Z,17.5
2019-05-25T13:34:00.994Z,17.5
2019-05-25T13:35:01.619Z,17.5
2019-05-25T13:36:03.262Z,17.2
2019-05-25T13:37:02.104Z,17.2
2019-05-25T13:38:01.595Z,17.2
2019-05-25T13:39:01.084Z,17.0
2019-05-25T13:40:07.936Z,17.0
2019-05-25T13:41:32.571Z,15.9
2019-05-25T13:42:01.751Z,15.9
2019-05-25T13:43:07.636Z,15.9
2019-05-25T13:44:03.885Z,15.0
2019-05-25T13:45:03.172Z,15.0
2019-05-25T13:46:01.410Z,14.6
2019-05-25T13:47:11.433Z,14.6
2019-05-25T13:48:02.326Z,14.6
2019-05-25T13:49:01.254Z,14.3
2019-05-25T13:50:02.285Z,14.3
2019-05-25T13:51:01.237Z,14.3
2019-05-25T13:53:17.969Z,14.3
2019-05-25T13:54:15.230Z,14.0
2019-05-25T13:55:18.084Z,14.0
2019-05-25T13:56:15.041Z,13.8
2019-05-25T13:57:16.695Z,13.8
2019-05-25T13:58:15.088Z,13.8
2019-05-25T13:59:13.896Z,13.7
2019-05-25T14:00:14.651Z,13.7
2019-05-25T14:01:27.483Z,13.7
2019-05-25T14:02:14.592Z,13.7
2019-05-25T14:03:15.449Z,13.7
2019-05-25T14:04:14.404Z,13.3
2019-05-25T14:05:14.501Z,13.3
2019-05-25T14:06:15.654Z,13.1
2019-05-25T14:07:37.293Z,13.1
2019-05-25T14:08:24.575Z,13.1
2019-05-25T14:09:58.080Z,13.0
2019-05-25T14:10:23.117Z,13.0
2019-05-25T14:11:19.760Z,12.9
2019-05-25T14:13:27.841Z,12.9
2019-05-25T14:14:27.882Z,12.9
2019-05-25T14:15:27.299Z,12.9
2019-05-25T14:16:27.874Z,12.8
2019-05-25T14:17:29.575Z,12.8
2019-05-25T14:18:29.336Z,12.8
2019-05-25T14:19:30.335Z,12.8
2019-05-25T14:20:28.202Z,12.8
2019-05-25T14:21:31.596Z,12.7
2019-05-25T14:22:31.702Z,12.7
2019-05-25T14:23:28.043Z,12.7
2019-05-25T14:24:34.835Z,12.6
2019-05-25T14:25:27.331Z,12.6
2019-05-25T14:26:27.270Z,12.6
2019-05-25T14:27:27.658Z,12.6
2019-05-25T14:28:28.223Z,12.6
2019-05-25T14:29:28.112Z,12.8
2019-05-25T14:30:27.727Z,12.8
2019-05-25T14:31:36.242Z,12.7
2019-05-25T14:32:27.804Z,12.7